Time;durP1;ratioP1;P1;durP2;ratioP2;P2;SDS_P1;SDS_P2;PMS_P1;PMS_P2;Temp;Humidity;BMP_temperature;BMP_pressure;BME280_temperature;BME280_humidity;BME280_pressure;Samples;Min_cycle;Max_cycle;Signal;HPM_P1;HPM_P2
2023/08/10 00:01:59;;;;;;;2.05;1.50;;;;;;;20.88;58.01;94631.72;5082949;28;20206;-42
2023/08/10 00:04:26;;;;;;;1.45;1.40;;;;;;;20.84;58.09;94635.72;5068996;28;20199;-42
2023/08/10 00:06:53;;;;;;;1.60;1.50;;;;;;;20.81;58.30;94634.31;5068569;28;20186;-43
2023/08/10 00:09:21;;;;;;;2.45;1.40;;;;;;;20.87;58.15;94638.72;5068993;28;20187;-41
2023/08/10 00:11:47;;;;;;;1.80;1.70;;;;;;;20.89;57.96;94633.31;5068802;28;20714;-42
2023/08/10 00:14:14;;;;;;;1.55;1.45;;;;;;;20.93;57.91;94635.31;5069175;28;20187;-42
2023/08/10 00:16:41;;;;;;;1.70;1.60;;;;;;;20.94;57.93;94636.09;5068501;28;20237;-42
2023/08/10 00:19:08;;;;;;;1.98;1.63;;;;;;;20.96;57.96;94632.31;5068801;28;20191;-43
2023/08/10 00:21:35;;;;;;;1.55;1.45;;;;;;;21.01;58.05;94640.31;5069145;28;20187;-44
2023/08/10 00:24:03;;;;;;;1.60;1.50;;;;;;;21.00;58.30;94632.72;5069154;28;20193;-42
2023/08/10 00:26:31;;;;;;;2.70;1.60;;;;;;;20.96;58.04;94621.91;5068728;28;20195;-42
2023/08/10 00:28:58;;;;;;;1.52;1.42;;;;;;;20.96;58.04;94629.72;5068901;28;20251;-44
2023/08/10 00:31:25;;;;;;;2.47;1.35;;;;;;;20.90;58.37;94621.94;5068616;28;20248;-44
2023/08/10 00:33:52;;;;;;;2.20;1.50;;;;;;;20.89;58.26;94617.72;5068672;28;20190;-42
2023/08/10 00:36:18;;;;;;;1.52;1.42;;;;;;;20.86;58.44;94615.56;5070198;28;20226;-42
2023/08/10 00:38:45;;;;;;;1.98;1.50;;;;;;;20.80;58.69;94623.13;5072087;28;20187;-41
2023/08/10 00:41:13;;;;;;;2.17;1.50;;;;;;;20.20;58.93;94528.84;5072239;28;20191;-43
2023/08/10 00:43:42;;;;;;;1.45;1.38;;;;;;;20.69;59.32;94612.56;5072380;28;20185;-42
2023/08/10 00:46:12;;;;;;;1.55;1.40;;;;;;;20.68;59.27;94611.78;5072074;28;20194;-42
2023/08/10 00:48:39;;;;;;;1.63;1.30;;;;;;;20.60;59.53;94603.41;5072068;28;20199;-45
2023/08/10 00:51:06;;;;;;;1.60;1.50;;;;;;;20.58;59.68;94602.78;5072244;28;20194;-43
2023/08/10 00:53:32;;;;;;;3.33;1.52;;;;;;;20.57;59.74;94596.00;5071807;28;20680;-44
2023/08/10 00:56:02;;;;;;;1.50;1.40;;;;;;;20.49;60.17;94589.19;5072030;28;20189;-43
2023/08/10 00:58:30;;;;;;;1.80;1.70;;;;;;;20.55;59.64;94585.78;5071767;28;20654;-43
2023/08/10 01:00:58;;;;;;;1.67;1.58;;;;;;;20.41;60.08;94578.97;5071724;28;20190;-44
2023/08/10 01:03:25;;;;;;;1.83;1.73;;;;;;;20.40;60.30;94585.19;5072048;28;20285;-44
2023/08/10 01:06:00;;;;;;;1.60;1.50;;;;;;;20.24;60.16;94569.00;5071881;28;20203;-43
2023/08/10 01:08:33;;;;;;;1.52;1.52;;;;;;;20.28;60.33;94596.16;5071646;28;20189;-44
2023/08/10 01:11:12;;;;;;;1.98;1.50;;;;;;;20.28;60.49;94595.38;5071672;28;20595;-44
2023/08/10 01:13:48;;;;;;;2.10;1.55;;;;;;;19.79;60.70;94522.06;5071451;28;20281;-44
2023/08/10 01:16:17;;;;;;;1.75;1.40;;;;;;;20.23;60.69;94603.75;5071475;28;20305;-43
2023/08/10 01:18:45;;;;;;;1.60;1.50;;;;;;;20.16;61.04;94595.16;5071352;28;20198;-44
2023/08/10 01:21:27;;;;;;;1.63;1.50;;;;;;;20.19;60.91;94599.16;5071395;28;20666;-42
2023/08/10 01:23:57;;;;;;;2.45;1.70;;;;;;;20.18;61.14;94600.97;5071059;28;20615;-44
2023/08/10 01:26:27;;;;;;;2.78;1.50;;;;;;;20.16;61.21;94602.94;5071238;28;20247;-43
2023/08/10 01:28:55;;;;;;;1.77;1.67;;;;;;;20.13;61.28;94607.75;5071092;28;20638;-43
2023/08/10 01:31:22;;;;;;;1.77;1.40;;;;;;;20.12;61.38;94611.34;5071270;28;20680;-43
2023/08/10 01:33:50;;;;;;;1.63;1.48;;;;;;;20.21;61.14;94616.16;5070995;28;20574;-42
2023/08/10 01:36:17;;;;;;;4.05;1.67;;;;;;;20.24;61.10;94613.13;5071456;28;20198;-45
2023/08/10 01:38:44;;;;;;;3.30;1.45;;;;;;;20.16;61.29;94602.16;5070997;28;20248;-43
2023/08/10 01:41:10;;;;;;;1.70;1.60;;;;;;;20.24;61.53;94618.34;5071572;28;20562;-42
2023/08/10 01:43:38;;;;;;;2.35;1.40;;;;;;;20.22;61.73;94609.97;5070903;28;20186;-42
2023/08/10 01:46:07;;;;;;;2.25;1.60;;;;;;;20.19;61.53;94605.16;5071116;28;20327;-43
2023/08/10 01:48:38;;;;;;;1.50;1.40;;;;;;;20.20;61.43;94614.53;5069603;28;20194;-43
2023/08/10 01:51:08;;;;;;;3.90;1.85;;;;;;;20.16;61.72;94605.53;5070735;28;20193;-43
2023/08/10 01:53:38;;;;;;;2.15;1.70;;;;;;;20.07;61.95;94605.94;5070955;28;20186;-44
2023/08/10 01:56:05;;;;;;;1.95;1.67;;;;;;;20.03;62.04;94602.94;5070728;28;20723;-44
2023/08/10 01:58:32;;;;;;;2.67;1.70;;;;;;;20.00;62.29;94596.34;5071091;28;20301;-43
2023/08/10 02:01:01;;;;;;;1.80;1.70;;;;;;;20.04;62.14;94588.97;5070781;28;20727;-44
2023/08/10 02:03:28;;;;;;;3.50;2.00;;;;;;;20.02;62.81;94596.16;5071173;28;20198;-43
2023/08/10 02:05:54;;;;;;;1.70;1.60;;;;;;;19.97;62.67;94609.72;5070456;28;20575;-42
2023/08/10 02:08:21;;;;;;;2.50;1.50;;;;;;;19.84;63.27;94606.31;5070767;28;20194;-44
2023/08/10 02:10:48;;;;;;;2.00;1.70;;;;;;;19.76;63.64;94604.69;5070635;28;20574;-44
2023/08/10 02:13:15;;;;;;;1.73;1.63;;;;;;;19.72;64.00;94619.06;5070505;28;20631;-40
2023/08/10 02:15:42;;;;;;;2.20;2.00;;;;;;;19.71;64.08;94620.06;5070412;28;20696;-43
2023/08/10 02:18:12;;;;;;;2.60;1.60;;;;;;;19.44;64.35;94593.22;5070279;28;20354;-42
2023/08/10 02:20:39;;;;;;;3.15;1.70;;;;;;;19.63;64.34;94641.78;5070165;28;20677;-42
2023/08/10 02:23:07;;;;;;;1.77;1.40;;;;;;;19.67;64.19;94644.78;5070565;28;20229;-42
2023/08/10 02:25:34;;;;;;;1.83;1.50;;;;;;;19.71;63.98;94651.19;5070617;28;20182;-43
2023/08/10 02:28:00;;;;;;;4.13;2.20;;;;;;;19.77;63.76;94660.78;5070715;28;20186;-43
2023/08/10 02:30:27;;;;;;;1.70;1.60;;;;;;;19.79;63.94;94666.59;5069930;28;20233;-41
2023/08/10 02:32:54;;;;;;;1.60;1.50;;;;;;;19.84;63.84;94674.59;5069982;28;20195;-43
2023/08/10 02:35:22;;;;;;;3.03;1.45;;;;;;;19.87;63.78;94696.75;5070011;28;20182;-42
2023/08/10 02:37:50;;;;;;;2.90;1.80;;;;;;;19.86;64.12;94697.75;5070057;28;20246;-42
2023/08/10 02:40:17;;;;;;;1.93;1.77;;;;;;;19.90;64.65;94712.72;5070021;28;20613;-43
2023/08/10 02:42:44;;;;;;;3.17;1.70;;;;;;;19.88;65.59;94722.50;5070142;28;20636;-42
2023/08/10 02:45:12;;;;;;;4.07;2.00;;;;;;;19.90;66.42;94717.91;5070357;28;20193;-41
2023/08/10 02:47:39;;;;;;;2.13;1.92;;;;;;;19.86;71.63;94723.69;5069947;28;20267;-43
2023/08/10 02:50:06;;;;;;;2.50;2.22;;;;;;;19.80;74.67;94728.66;5069934;28;20271;-44
2023/08/10 02:52:35;;;;;;;3.80;2.13;;;;;;;19.68;77.44;94735.41;5070172;28;20197;-42
2023/08/10 02:55:03;;;;;;;1.98;1.88;;;;;;;19.56;77.97;94739.53;5070053;28;20202;-42
2023/08/10 02:57:30;;;;;;;3.20;2.00;;;;;;;19.45;79.63;94742.66;5069928;28;20214;-42
2023/08/10 02:59:57;;;;;;;2.60;2.40;;;;;;;19.32;80.27;94747.75;5069481;28;20573;-43
2023/08/10 03:02:24;;;;;;;3.90;2.22;;;;;;;19.22;81.60;94748.91;5069605;28;20212;-41
2023/08/10 03:04:51;;;;;;;3.77;2.23;;;;;;;19.12;83.30;94747.59;5069807;28;20558;-42
2023/08/10 03:07:18;;;;;;;3.10;2.10;;;;;;;19.03;83.65;94746.94;5069723;28;20704;-43
2023/08/10 03:09:46;;;;;;;5.70;2.47;;;;;;;18.70;85.07;94713.03;5070255;28;20182;-41
2023/08/10 03:12:13;;;;;;;3.30;1.97;;;;;;;18.83;86.24;94744.22;5069621;28;20703;-41
2023/08/10 03:14:39;;;;;;;3.43;2.30;;;;;;;18.75;88.05;94745.16;5069701;28;20193;-41
2023/08/10 03:17:06;;;;;;;4.30;2.47;;;;;;;18.67;89.14;94744.44;5069547;28;20268;-41
2023/08/10 03:19:33;;;;;;;2.80;2.43;;;;;;;18.61;88.72;94746.00;5069503;28;20704;-43
2023/08/10 03:22:00;;;;;;;3.33;2.33;;;;;;;18.54;89.53;94739.94;5069612;28;20217;-41
2023/08/10 03:24:27;;;;;;;2.47;2.13;;;;;;;18.46;90.19;94737.47;5069300;28;20192;-42
2023/08/10 03:26:55;;;;;;;4.90;1.97;;;;;;;18.43;90.86;94741.22;5069996;28;20201;-43
2023/08/10 03:29:22;;;;;;;3.13;2.07;;;;;;;18.40;90.15;94736.44;5069632;28;20567;-43
2023/08/10 03:31:48;;;;;;;4.67;2.57;;;;;;;18.34;90.18;94738.94;5069539;28;20613;-44
2023/08/10 03:34:15;;;;;;;2.20;2.00;;;;;;;18.28;90.52;94735.31;5069613;28;20186;-43
2023/08/10 03:36:42;;;;;;;3.60;2.07;;;;;;;18.29;89.63;94729.94;5069770;28;20194;-43
2023/08/10 03:39:09;;;;;;;2.30;2.10;;;;;;;18.23;89.49;94725.50;5069239;28;20200;-43
2023/08/10 03:41:35;;;;;;;3.07;2.10;;;;;;;18.23;90.13;94738.47;5069511;28;20190;-43
2023/08/10 03:44:04;;;;;;;2.60;2.40;;;;;;;18.21;91.80;94743.00;5068609;28;20190;-44
2023/08/10 03:46:31;;;;;;;3.23;2.43;;;;;;;18.21;92.50;94744.78;5068800;28;20206;-42
2023/08/10 03:48:58;;;;;;;3.20;2.57;;;;;;;18.11;93.97;94739.91;5069239;28;20247;-41
2023/08/10 03:51:25;;;;;;;2.90;2.27;;;;;;;18.13;94.75;94747.50;5069357;28;20186;-41
2023/08/10 03:53:51;;;;;;;3.13;2.30;;;;;;;18.11;95.30;94762.41;5069328;28;20194;-42
2023/08/10 03:56:18;;;;;;;2.40;2.20;;;;;;;18.13;95.17;94773.38;5069119;28;20228;-43
2023/08/10 03:58:45;;;;;;;3.23;2.30;;;;;;;17.96;95.42;94755.50;5069670;28;20210;-44
2023/08/10 04:01:13;;;;;;;2.87;2.50;;;;;;;18.11;95.93;94780.53;5068764;28;20576;-42
2023/08/10 04:03:41;;;;;;;3.03;2.40;;;;;;;18.11;96.42;94793.47;5068859;28;20190;-42
2023/08/10 04:06:08;;;;;;;8.50;3.10;;;;;;;18.14;95.78;94787.94;5068843;28;20267;-42
2023/08/10 04:08:35;;;;;;;3.27;2.77;;;;;;;18.15;95.49;94769.63;5068725;28;20708;-43
2023/08/10 04:11:02;;;;;;;2.67;2.47;;;;;;;17.69;94.82;94692.25;5069487;28;20195;-42
2023/08/10 04:13:28;;;;;;;4.57;2.50;;;;;;;18.13;94.91;94769.00;5072943;28;20182;-42
2023/08/10 04:15:56;;;;;;;4.43;2.57;;;;;;;18.14;93.99;94777.59;5072810;28;20202;-43
2023/08/10 04:18:24;;;;;;;2.63;2.40;;;;;;;18.15;93.84;94790.34;5072687;28;20609;-44
2023/08/10 04:20:51;;;;;;;6.03;2.90;;;;;;;18.22;93.60;94795.56;5073064;28;20202;-43
2023/08/10 04:23:19;;;;;;;3.83;2.77;;;;;;;18.19;95.11;94801.13;5072856;28;20186;-44
2023/08/10 04:25:45;;;;;;;3.63;2.50;;;;;;;18.12;96.72;94798.47;5072698;28;20190;-45
2023/08/10 04:28:12;;;;;;;2.93;2.63;;;;;;;18.12;97.97;94818.38;5072571;28;20198;-44
2023/08/10 04:30:39;;;;;;;3.60;3.10;;;;;;;18.09;99.02;94829.91;5072710;28;20233;-43
2023/08/10 04:33:06;;;;;;;5.93;2.97;;;;;;;18.04;100.00;94834.78;5072394;28;20195;-43
2023/08/10 04:35:34;;;;;;;3.93;2.90;;;;;;;17.98;100.00;94832.94;5072964;28;20194;-44
2023/08/10 04:38:02;;;;;;;6.33;3.13;;;;;;;17.94;100.00;94832.47;5072131;28;20217;-44
2023/08/10 04:40:29;;;;;;;5.37;3.00;;;;;;;17.92;100.00;94833.63;5072828;28;20225;-42
2023/08/10 04:42:56;;;;;;;5.53;3.17;;;;;;;17.84;100.00;94824.19;5072193;28;20194;-41
2023/08/10 04:45:22;;;;;;;4.47;3.20;;;;;;;17.85;100.00;94832.75;5072503;28;20198;-43
2023/08/10 04:47:49;;;;;;;3.47;3.17;;;;;;;17.84;100.00;94831.97;5072200;28;20198;-44
2023/08/10 04:50:16;;;;;;;4.50;3.27;;;;;;;17.87;100.00;94828.19;5072513;28;20194;-43
2023/08/10 04:52:44;;;;;;;5.00;3.50;;;;;;;17.63;100.00;94790.44;5072221;28;20190;-44
2023/08/10 04:55:12;;;;;;;4.70;3.20;;;;;;;17.81;100.00;94829.72;5071993;28;20187;-42
2023/08/10 04:57:39;;;;;;;5.13;2.93;;;;;;;17.82;100.00;94838.28;5071802;28;20714;-43
2023/08/10 05:00:12;;;;;;;7.07;3.20;;;;;;;17.87;100.00;94833.38;5072110;28;20195;-42
2023/08/10 05:02:40;;;;;;;4.80;3.70;;;;;;;17.72;100.00;94808.28;5071971;28;20198;-43
2023/08/10 05:05:08;;;;;;;9.27;3.70;;;;;;;17.79;100.00;94823.94;5072041;28;20198;-41
2023/08/10 05:07:35;;;;;;;8.20;3.40;;;;;;;17.73;100.00;94832.38;5072289;28;20267;-43
2023/08/10 05:10:06;;;;;;;4.30;3.37;;;;;;;17.70;100.00;94824.94;5071760;28;20193;-43
2023/08/10 05:12:33;;;;;;;3.67;3.03;;;;;;;17.71;100.00;94822.22;5072104;28;20289;-42
2023/08/10 05:15:00;;;;;;;3.63;2.90;;;;;;;17.68;100.00;94811.41;5071622;28;20594;-43
2023/08/10 05:17:27;;;;;;;6.20;2.93;;;;;;;17.66;100.00;94813.34;5072728;28;20580;-43
2023/08/10 05:19:54;;;;;;;3.20;2.90;;;;;;;17.61;100.00;94805.34;5091700;28;20276;-43
2023/08/10 05:22:21;;;;;;;3.27;2.97;;;;;;;17.54;100.00;94798.28;5091708;28;20763;-43
2023/08/10 05:24:47;;;;;;;6.37;3.30;;;;;;;17.45;100.00;94798.56;5091148;28;20190;-42
2023/08/10 05:27:15;;;;;;;3.33;3.03;;;;;;;17.39;100.00;94794.88;5091685;28;20661;-43
2023/08/10 05:29:42;;;;;;;4.97;3.07;;;;;;;17.30;100.00;94791.56;5091544;28;21045;-43
2023/08/10 05:32:09;;;;;;;4.47;3.23;;;;;;;17.27;100.00;94796.28;5091343;28;20229;-43
2023/08/10 05:34:36;;;;;;;4.10;2.80;;;;;;;17.25;100.00;94795.69;5091595;28;20194;-43
2023/08/10 05:37:03;;;;;;;3.30;3.00;;;;;;;17.23;100.00;94800.22;5091776;28;20243;-44
2023/08/10 05:39:30;;;;;;;4.00;3.00;;;;;;;17.15;100.00;94783.00;5091263;28;20899;-44
2023/08/10 05:41:56;;;;;;;6.17;3.57;;;;;;;17.16;100.00;94786.41;5091722;28;20255;-43
2023/08/10 05:44:25;;;;;;;3.83;3.17;;;;;;;17.05;100.00;94779.84;5091738;28;20193;-46
2023/08/10 05:46:51;;;;;;;4.37;2.90;;;;;;;16.85;100.00;94758.09;5091883;28;20186;-45
2023/08/10 05:49:18;;;;;;;5.03;3.00;;;;;;;16.79;100.00;94757.78;5091541;28;20653;-45
2023/08/10 05:51:45;;;;;;;3.20;2.90;;;;;;;16.78;100.00;94763.13;5091060;28;20221;-46
2023/08/10 05:54:12;;;;;;;4.77;2.93;;;;;;;16.92;100.00;94775.28;5091269;28;20718;-46
2023/08/10 05:56:40;;;;;;;5.27;4.17;;;;;;;16.96;100.00;94781.72;5091168;28;20201;-44
2023/08/10 05:59:07;;;;;;;5.30;4.20;;;;;;;16.94;100.00;94788.84;5091092;28;20283;-45
2023/08/10 06:01:35;;;;;;;7.10;4.37;;;;;;;16.97;100.00;94785.91;5091001;28;20193;-43
2023/08/10 06:04:02;;;;;;;3.70;3.40;;;;;;;16.98;100.00;94792.69;5089831;28;20620;-44
2023/08/10 06:06:30;;;;;;;5.80;4.00;;;;;;;17.01;100.00;94787.19;5090909;28;20188;-44
2023/08/10 06:08:57;;;;;;;7.00;4.00;;;;;;;17.03;100.00;94785.22;5091599;28;20204;-45
2023/08/10 06:11:23;;;;;;;4.43;3.20;;;;;;;17.07;100.00;94787.44;5091133;28;20186;-43
2023/08/10 06:13:50;;;;;;;4.53;3.23;;;;;;;17.05;100.00;94782.44;5090894;28;20533;-43
2023/08/10 06:16:17;;;;;;;3.50;3.20;;;;;;;17.09;100.00;94775.94;5090652;28;20201;-42
2023/08/10 06:18:45;;;;;;;6.03;3.40;;;;;;;17.07;100.00;94785.66;5090861;28;20249;-44
2023/08/10 06:21:13;;;;;;;4.33;3.47;;;;;;;17.08;100.00;94789.84;5090443;28;20193;-42
2023/08/10 06:23:40;;;;;;;3.50;3.10;;;;;;;17.14;100.00;94786.59;5090722;28;20284;-43
2023/08/10 06:26:07;;;;;;;4.37;2.73;;;;;;;17.13;100.00;94799.66;5090591;28;20622;-43
2023/08/10 06:28:34;;;;;;;3.77;2.60;;;;;;;17.15;100.00;94816.59;5090214;28;20693;-44
2023/08/10 06:31:01;;;;;;;3.60;2.67;;;;;;;17.20;100.00;94813.50;5090749;28;20221;-42
2023/08/10 06:33:28;;;;;;;4.13;3.20;;;;;;;17.29;100.00;94822.78;5089702;28;20205;-44
2023/08/10 06:35:56;;;;;;;3.80;2.70;;;;;;;17.26;100.00;94820.53;5090828;28;20189;-43
2023/08/10 06:38:22;;;;;;;4.80;2.60;;;;;;;17.35;100.00;94839.38;5090578;28;20225;-42
2023/08/10 06:40:49;;;;;;;2.93;2.73;;;;;;;17.40;100.00;94834.47;5090751;28;20184;-44
2023/08/10 06:43:16;;;;;;;3.03;2.83;;;;;;;17.47;100.00;94832.78;5090178;28;20206;-45
2023/08/10 06:45:43;;;;;;;5.87;3.40;;;;;;;17.48;100.00;94834.38;5090426;28;20564;-44
2023/08/10 06:48:10;;;;;;;5.60;3.10;;;;;;;17.44;100.00;94825.38;5090377;28;20193;-45
2023/08/10 06:50:37;;;;;;;5.97;3.27;;;;;;;17.55;100.00;94828.34;5090351;28;20189;-44
2023/08/10 06:53:07;;;;;;;4.33;3.47;;;;;;;17.67;100.00;94835.66;5090066;28;20273;-44
2023/08/10 06:55:34;;;;;;;3.53;3.20;;;;;;;17.67;100.00;94831.28;5090222;28;20186;-42
2023/08/10 06:58:01;;;;;;;5.27;3.57;;;;;;;17.71;100.00;94836.94;5090252;28;20262;-43
2023/08/10 07:00:28;;;;;;;5.23;3.50;;;;;;;17.69;100.00;94831.91;5090002;28;20281;-43
2023/08/10 07:02:55;;;;;;;5.40;3.70;;;;;;;17.81;100.00;94840.06;5090145;28;20213;-42
2023/08/10 07:05:21;;;;;;;6.80;3.20;;;;;;;17.85;100.00;94837.94;5089773;28;20197;-45
2023/08/10 07:07:49;;;;;;;9.70;5.53;;;;;;;17.82;100.00;94836.50;5090428;28;20573;-43
2023/08/10 07:10:17;;;;;;;7.77;5.07;;;;;;;17.91;99.43;94844.97;5089628;28;20190;-42
2023/08/10 07:12:44;;;;;;;4.20;3.80;;;;;;;18.12;100.00;94841.66;5090018;28;20665;-43
2023/08/10 07:15:11;;;;;;;6.60;4.23;;;;;;;18.18;100.00;94843.53;5090002;28;20186;-44
2023/08/10 07:17:38;;;;;;;5.30;3.83;;;;;;;18.17;99.96;94845.31;5089666;28;20190;-43
2023/08/10 07:20:06;;;;;;;5.47;3.67;;;;;;;18.12;100.00;94837.28;5089660;28;20233;-42
2023/08/10 07:22:33;;;;;;;6.00;4.40;;;;;;;18.07;100.00;94837.03;5089782;28;20198;-43
2023/08/10 07:25:05;;;;;;;5.87;5.03;;;;;;;18.03;100.00;94846.94;5089593;28;20305;-45
2023/08/10 07:27:34;;;;;;;12.13;5.40;;;;;;;17.95;100.00;94847.03;5089579;28;20197;-45
2023/08/10 07:30:03;;;;;;;8.60;5.00;;;;;;;18.04;99.25;94848.53;5089371;28;20577;-43
2023/08/10 07:32:30;;;;;;;4.47;4.07;;;;;;;18.00;98.71;94833.53;5089655;28;20280;-42
2023/08/10 07:34:57;;;;;;;6.03;4.10;;;;;;;18.32;97.43;94854.84;5089450;28;20232;-45
2023/08/10 07:37:24;;;;;;;6.10;4.90;;;;;;;18.42;96.22;94850.97;5089769;28;20193;-43
2023/08/10 07:39:51;;;;;;;4.87;4.47;;;;;;;18.56;95.76;94847.53;5089414;28;20240;-43
2023/08/10 07:42:18;;;;;;;3.57;3.27;;;;;;;18.73;95.05;94855.94;5089653;28;20193;-43
2023/08/10 07:44:46;;;;;;;4.70;3.13;;;;;;;18.91;94.65;94854.69;5090127;28;20177;-45
2023/08/10 07:47:13;;;;;;;3.33;3.03;;;;;;;19.06;92.07;94855.47;5093533;28;20581;-44
2023/08/10 07:49:42;;;;;;;5.30;3.30;;;;;;;19.23;91.20;94862.00;5094074;28;20205;-45
2023/08/10 07:52:09;;;;;;;3.20;2.90;;;;;;;19.35;90.57;94861.50;5093635;28;20178;-43
2023/08/10 07:54:36;;;;;;;4.83;2.87;;;;;;;19.35;89.86;94835.56;5093559;28;20181;-45
2023/08/10 07:57:03;;;;;;;3.60;2.93;;;;;;;19.69;89.11;94855.56;5093615;28;20197;-44
2023/08/10 07:59:30;;;;;;;5.53;3.00;;;;;;;19.87;88.28;94860.28;5093493;28;20221;-44
2023/08/10 08:01:58;;;;;;;3.23;2.43;;;;;;;20.28;85.74;94868.88;5093496;28;20516;-41
2023/08/10 08:04:25;;;;;;;3.50;2.97;;;;;;;20.58;83.71;94860.81;5093581;28;20251;-42
2023/08/10 08:06:52;;;;;;;2.75;2.55;;;;;;;20.92;83.47;94866.91;5093547;28;20602;-42
2023/08/10 08:09:19;;;;;;;3.33;2.67;;;;;;;21.20;82.72;94853.72;5093387;28;20565;-43
2023/08/10 08:11:46;;;;;;;2.90;2.70;;;;;;;21.30;82.87;94856.75;5093399;28;20276;-44
2023/08/10 08:14:13;;;;;;;3.55;2.63;;;;;;;21.35;81.98;94856.19;5093833;28;20190;-43
2023/08/10 08:16:39;;;;;;;3.15;2.72;;;;;;;21.35;79.64;94867.41;5093177;28;20189;-45
2023/08/10 08:19:08;;;;;;;4.82;2.90;;;;;;;21.22;80.06;94865.56;5092991;28;20221;-42
2023/08/10 08:21:35;;;;;;;3.33;2.90;;;;;;;21.06;81.17;94868.53;5093583;28;20182;-43
2023/08/10 08:24:03;;;;;;;2.47;2.28;;;;;;;21.01;82.52;94868.31;5093031;28;20263;-44
2023/08/10 08:26:32;;;;;;;3.53;3.20;;;;;;;21.07;82.60;94862.34;5093135;28;20193;-44
2023/08/10 08:28:59;;;;;;;3.45;3.15;;;;;;;21.08;80.33;94871.75;5093003;28;20193;-42
2023/08/10 08:31:26;;;;;;;4.60;3.13;;;;;;;21.01;79.43;94860.53;5092933;28;20217;-43
2023/08/10 08:33:53;;;;;;;4.03;2.50;;;;;;;21.02;79.53;94865.53;5092857;28;20650;-43
2023/08/10 08:36:21;;;;;;;4.50;3.55;;;;;;;21.18;79.06;94855.75;5093177;28;20189;-44
2023/08/10 08:38:48;;;;;;;4.43;3.08;;;;;;;21.26;78.60;94853.75;5092343;28;20221;-44
2023/08/10 08:41:18;;;;;;;3.80;3.42;;;;;;;21.41;77.69;94861.38;5093053;28;20194;-45
2023/08/10 08:43:47;;;;;;;3.85;2.70;;;;;;;21.57;77.28;94867.19;5092541;28;20201;-43
2023/08/10 08:46:14;;;;;;;4.90;2.90;;;;;;;21.71;76.70;94856.56;5092821;28;20200;-43
2023/08/10 08:48:42;;;;;;;2.75;2.55;;;;;;;22.03;75.15;94865.31;5092301;28;20221;-42
2023/08/10 08:51:09;;;;;;;4.63;3.15;;;;;;;22.28;73.07;94851.66;5092894;28;20229;-44
2023/08/10 08:53:38;;;;;;;4.25;2.90;;;;;;;22.68;71.85;94864.50;5092236;28;20190;-44
2023/08/10 08:56:05;;;;;;;3.45;2.92;;;;;;;22.96;70.67;94874.59;5092652;28;20288;-43
2023/08/10 08:58:32;;;;;;;3.33;3.00;;;;;;;23.08;69.51;94879.97;5091919;28;20216;-44
2023/08/10 09:01:01;;;;;;;4.03;3.30;;;;;;;23.06;68.70;94877.56;5092955;28;20193;-43
2023/08/10 09:03:28;;;;;;;3.45;2.88;;;;;;;22.94;68.20;94877.44;5092335;28;20190;-43
2023/08/10 09:05:55;;;;;;;4.03;2.90;;;;;;;22.67;67.70;94873.34;5092455;28;20205;-43
2023/08/10 09:08:22;;;;;;;3.30;2.60;;;;;;;22.42;69.23;94868.84;5092372;28;20201;-44
2023/08/10 09:10:50;;;;;;;3.10;2.80;;;;;;;22.33;70.41;94862.25;5092031;28;20197;-42
2023/08/10 09:13:21;;;;;;;3.00;2.70;;;;;;;22.24;70.41;94851.25;5092182;28;20193;-43
2023/08/10 09:16:03;;;;;;;4.75;3.00;;;;;;;22.33;70.87;94870.06;5091887;28;20227;-44
2023/08/10 09:18:32;;;;;;;4.43;3.17;;;;;;;22.45;71.49;94875.44;5091872;28;20193;-44
2023/08/10 09:21:14;;;;;;;3.22;2.88;;;;;;;22.52;71.49;94873.59;5091879;28;20232;-43
2023/08/10 09:23:42;;;;;;;2.70;2.50;;;;;;;22.57;68.69;94870.38;5091824;28;20225;-43
2023/08/10 09:26:11;;;;;;;6.20;2.80;;;;;;;22.67;69.12;94868.94;5092304;28;20274;-43
2023/08/10 09:28:39;;;;;;;5.57;2.70;;;;;;;22.87;68.73;94863.59;5091754;28;20194;-43
2023/08/10 09:31:07;;;;;;;2.88;2.67;;;;;;;23.11;67.93;94875.13;5091739;28;20229;-45
2023/08/10 09:33:35;;;;;;;3.50;3.20;;;;;;;23.13;65.94;94859.25;5091619;28;20251;-43
2023/08/10 09:36:03;;;;;;;6.63;2.85;;;;;;;22.99;66.23;94861.94;5092013;28;20292;-43
2023/08/10 09:38:30;;;;;;;3.00;2.80;;;;;;;22.92;67.01;94866.41;5091777;28;20266;-44
2023/08/10 09:41:10;;;;;;;4.38;3.33;;;;;;;22.95;67.70;94870.41;5091234;28;20689;-43
2023/08/10 09:43:37;;;;;;;2.80;2.50;;;;;;;22.97;67.01;94861.38;5091341;28;20178;-43
2023/08/10 09:46:05;;;;;;;4.68;2.78;;;;;;;23.12;66.21;94855.06;5091700;28;20213;-43
2023/08/10 09:48:35;;;;;;;3.55;2.90;;;;;;;23.28;65.60;94847.50;5091833;28;20189;-43
2023/08/10 09:51:03;;;;;;;2.63;2.42;;;;;;;23.50;65.39;94847.13;5091489;28;20225;-44
2023/08/10 09:53:31;;;;;;;3.13;2.83;;;;;;;23.67;64.90;94848.22;5091531;28;20190;-45
2023/08/10 09:55:58;;;;;;;5.55;2.45;;;;;;;23.70;63.86;94841.75;5091062;28;20190;-44
2023/08/10 09:58:27;;;;;;;3.28;2.40;;;;;;;23.85;64.73;94849.25;5091267;28;20197;-42
2023/08/10 10:00:54;;;;;;;3.78;2.70;;;;;;;24.00;63.82;94852.31;5090960;28;20212;-43
2023/08/10 10:03:28;;;;;;;4.40;3.00;;;;;;;23.98;62.85;94851.75;5091235;28;20665;-45
2023/08/10 10:05:55;;;;;;;2.30;2.10;;;;;;;24.00;62.97;94858.31;5091029;28;20186;-44
2023/08/10 10:08:22;;;;;;;2.45;2.28;;;;;;;24.10;63.70;94859.66;5090228;28;20192;-44
2023/08/10 10:10:49;;;;;;;3.45;2.30;;;;;;;24.18;63.18;94854.13;5091089;28;20281;-43
2023/08/10 10:13:17;;;;;;;5.88;2.70;;;;;;;24.26;62.84;94853.84;5091138;28;20196;-42
2023/08/10 10:15:46;;;;;;;2.58;2.38;;;;;;;24.41;61.74;94853.50;5091050;28;20666;-42
2023/08/10 10:18:14;;;;;;;2.60;2.30;;;;;;;24.48;59.07;94860.25;5090955;28;20194;-44
2023/08/10 10:20:42;;;;;;;4.20;2.00;;;;;;;24.52;59.07;94857.97;5090968;28;20286;-42
2023/08/10 10:23:15;;;;;;;4.30;2.80;;;;;;;24.62;59.11;94852.25;5091283;28;20193;-42
2023/08/10 10:25:55;;;;;;;3.40;2.80;;;;;;;24.63;59.02;94853.84;5090622;28;20272;-42
2023/08/10 10:28:22;;;;;;;4.03;2.85;;;;;;;24.65;59.32;94846.56;5090837;28;20205;-43
2023/08/10 10:31:06;;;;;;;5.32;2.50;;;;;;;24.81;58.64;94859.03;5090336;28;20278;-41
2023/08/10 10:33:33;;;;;;;4.03;2.65;;;;;;;24.82;58.48;94847.53;5090508;28;20189;-43
2023/08/10 10:36:10;;;;;;;6.95;2.70;;;;;;;24.74;57.74;94853.06;5090439;28;20190;-42
2023/08/10 10:38:39;;;;;;;3.10;2.60;;;;;;;24.62;57.95;94829.50;5090741;28;20192;-42
2023/08/10 10:41:10;;;;;;;3.70;2.85;;;;;;;24.83;58.67;94848.31;5090697;28;20221;-42
2023/08/10 10:43:37;;;;;;;2.95;2.55;;;;;;;24.80;57.34;94846.19;5090410;28;20696;-42
2023/08/10 10:46:05;;;;;;;2.65;2.45;;;;;;;24.84;57.22;94848.13;5090553;28;20201;-43
2023/08/10 10:48:37;;;;;;;7.50;2.50;;;;;;;24.89;56.21;94848.25;5090451;28;20204;-43
2023/08/10 10:51:05;;;;;;;3.05;2.10;;;;;;;24.74;55.79;94846.03;5090339;28;20192;-43
2023/08/10 10:53:33;;;;;;;4.78;2.22;;;;;;;24.70;55.65;94851.94;5090595;28;20916;-44
2023/08/10 10:56:01;;;;;;;2.20;2.05;;;;;;;24.75;55.88;94847.63;5090268;28;20265;-42
2023/08/10 10:58:30;;;;;;;2.95;2.50;;;;;;;24.87;56.13;94839.00;5090507;28;20181;-43
2023/08/10 11:00:58;;;;;;;2.22;1.95;;;;;;;24.94;55.57;94843.13;5090341;28;20308;-43
2023/08/10 11:03:29;;;;;;;2.10;1.90;;;;;;;24.98;55.06;94836.44;5090217;28;20229;-44
2023/08/10 11:05:56;;;;;;;2.85;1.60;;;;;;;25.03;53.90;94841.00;5090413;28;20182;-43
2023/08/10 11:08:24;;;;;;;2.53;2.30;;;;;;;25.09;53.77;94834.91;5090427;28;20198;-43
2023/08/10 11:10:51;;;;;;;3.97;2.25;;;;;;;24.95;54.07;94838.69;5089674;28;20737;-43
2023/08/10 11:13:20;;;;;;;2.47;1.80;;;;;;;24.97;54.65;94845.31;5090340;28;20213;-42
2023/08/10 11:15:48;;;;;;;2.65;2.03;;;;;;;24.76;54.69;94819.66;5089821;28;20197;-43
2023/08/10 11:18:15;;;;;;;2.38;2.00;;;;;;;24.92;53.90;94847.03;5089880;28;20201;-45
2023/08/10 11:20:48;;;;;;;3.50;2.20;;;;;;;24.86;54.49;94843.44;5089520;28;20221;-42
2023/08/10 11:23:16;;;;;;;3.72;2.17;;;;;;;24.91;54.72;94835.72;5090136;28;20222;-43
2023/08/10 11:25:49;;;;;;;2.13;2.03;;;;;;;25.00;55.24;94828.38;5093393;28;20226;-44
2023/08/10 11:28:18;;;;;;;2.63;2.42;;;;;;;25.17;54.81;94831.16;5086736;28;20608;-43
2023/08/10 11:30:45;;;;;;;2.20;2.10;;;;;;;25.26;54.44;94829.84;5087290;28;20225;-44
2023/08/10 11:33:12;;;;;;;3.65;2.35;;;;;;;25.36;54.04;94829.28;5087066;28;20193;-43
2023/08/10 11:35:44;;;;;;;2.45;2.22;;;;;;;25.49;53.44;94816.75;5087292;28;20239;-43